Terminal Aerodrome Forecast
Issued by NWS

Home | Current Version | Previous Version | Text Only | Print | Product List | Glossary On
Versions: 1 2 3 4 5 6 7 8 9 10 11 12 13 14 15
000
FTUS42 KMLB 031140
TAFTIX
TAF
KTIX 031140Z 0312/0412 21003KT P6SM SCT250
     FM031300 26005KT P6SM FEW030 SCT250
     FM031700 09007KT P6SM VCTS SCT035CB SCT150
     FM032100 11010KT P6SM SCT030 BKN250
     FM040200 18005KT P6SM FEW250=

USA.gov is the U.S. government's official web portal to all federal, state and local government web resources and services.